MSC Rania — 3EEB3 — position and weather

sailwx.info

Track history (hours):
 
Tides and Currents Weather Stations Pressure Air Temp Water Temp Dewpoint Dewpoint Depression Visibility Wind Speed Wind Dir Waves Ship Positions

MSC Rania

Last reported at 2014-Oct-02 01:26 UTC. Time now 2014-Oct-02 04:34 UTC.
Position N 29°46' E 122°24'.

Length 332 m; draft 10 m.

Type: Ship (hazmat cat A). MMSI: 371752000.

Date/timePositionNaut miles runAvg speedWind from/ knotsBaromVisibWave heightAir tempDewpointWater temp
2014-Oct-02 01:26N 29°46' E 122°24'0 0.1
2014-Oct-01 23:20N 29°46' E 122°24'0 0.1
2014-Oct-01 22:32N 29°46' E 122°24'0 0.0
2014-Oct-01 15:25N 29°46' E 122°24'0 0.0
2014-Oct-01 14:31N 29°46' E 122°24'0 0.0
2014-Oct-01 10:13N 29°46' E 122°24'0 0.0
2014-Oct-01 02:19N 29°46' E 122°24'0 0.1
2014-Oct-01 01:33N 29°46' E 122°24'5 5.3
2014-Oct-01 00:33N 29°45' E 122°30'9 9.4
2014-Sep-30 23:34N 29°47' E 122°40'67 9.6
2014-Sep-30 16:33N 30°46' E 123°16'27 8.2
2014-Sep-30 13:12N 31°05' E 122°53'2111.5
2014-Sep-30 11:20N 31°06' E 122°28'911.3
2014-Sep-30 10:33N 31°07' E 122°18'2611.0
2014-Sep-30 08:13N 31°17' E 121°50'811.2
2014-Sep-30 07:32N 31°20' E 121°42'2 2.0
2014-Sep-30 06:29N 31°20' E 121°39'0 0.0
2014-Sep-30 05:29N 31°20' E 121°39'0 0.0
2014-Sep-30 01:29N 31°20' E 121°39'0 0.0
2014-Sep-29 23:29N 31°20' E 121°39'0 0.0
2014-Sep-29 22:29N 31°20' E 121°39'0 0.0
2014-Sep-29 20:29N 31°20' E 121°39'0 0.0
2014-Sep-29 19:17N 31°20' E 121°39'0 0.0
2014-Sep-29 18:05N 31°20' E 121°39'0 0.0
2014-Sep-29 17:23N 31°20' E 121°39'0 0.0
2014-Sep-29 16:23N 31°20' E 121°39'0 0.0
2014-Sep-29 15:29N 31°20' E 121°39'0 0.0
2014-Sep-29 11:29N 31°20' E 121°39'0 0.0
2014-Sep-29 10:11N 31°20' E 121°39'0 0.0
2014-Sep-29 07:17N 31°20' E 121°39'0 0.0
2014-Sep-29 06:29N 31°20' E 121°39'0 0.4
2014-Sep-29 05:33N 31°21' E 121°39'7 6.7
2014-Sep-29 04:33N 31°18' E 121°47'3611.9
2014-Sep-29 01:32N 31°07' E 122°27'9 9.2
2014-Sep-29 00:33N 31°07' E 122°37'1412.6
2014-Sep-28 23:26N 31°06' E 122°54'1412.6
2014-Sep-28 22:21N 31°02' E 123°09'1214.5
2014-Sep-28 21:33N 30°51' E 123°12'2014.4
2014-Sep-28 20:11N 30°32' E 123°19'914.7
2014-Sep-28 19:33N 30°23' E 123°18'1514.7
2014-Sep-28 18:33N 30°09' E 123°25'1514.5
2014-Sep-28 17:31N 29°56' E 123°33'1414.9
2014-Sep-28 16:33N 29°42' E 123°36'2015.2
2014-Sep-28 15:16N 29°23' E 123°42'1215.4
2014-Sep-28 14:31N 29°12' E 123°44'3115.8
2014-Sep-28 12:33N 28°45' E 123°26'1715.9
2014-Sep-28 11:29N 28°30' E 123°16'1515.9
2014-Sep-28 10:32N 28°17' E 123°07'30017.4
2014-Sep-27 17:17N 24°36' E 119°20'3617.0
2014-Sep-27 15:10N 24°20' E 118°45'1818.3
2014-Sep-27 14:10N 24°16' E 118°25'813.4
2014-Sep-27 13:33N 24°17' E 118°16'1313.5
2014-Sep-27 12:33N 24°25' E 118°04'3 2.2
2014-Sep-27 11:22N 24°26' E 118°02'0 0.0
2014-Sep-27 10:04N 24°26' E 118°02'0 0.1
2014-Sep-27 09:28N 24°26' E 118°02'0 0.0
2014-Sep-27 08:11N 24°26' E 118°02'0 0.0
2014-Sep-27 07:16N 24°26' E 118°02'0 0.1
2014-Sep-27 06:25N 24°26' E 118°02'0 0.1
2014-Sep-27 05:28N 24°26' E 118°02'0 0.0
2014-Sep-27 04:29N 24°26' E 118°02'0 0.0
2014-Sep-27 03:28N 24°26' E 118°02'0 0.0
2014-Sep-27 02:28N 24°26' E 118°02'0 0.0
2014-Sep-27 01:10N 24°26' E 118°02'0 0.0
2014-Sep-27 00:22N 24°26' E 118°02'0 0.4
2014-Sep-26 23:32N 24°26' E 118°02'1110.7
2014-Sep-26 22:33N 24°19' E 118°11'1413.5
2014-Sep-26 21:32N 24°08' E 118°20'1515.2
2014-Sep-26 20:33N 23°54' E 118°14'1818.2
2014-Sep-26 19:33N 23°41' E 118°00'2217.3
2014-Sep-26 18:17N 23°25' E 117°44'210 5.0
2014-Sep-25 00:25N 22°20' E 114°07'31612.2
2014-Sep-23 22:33N 22°30' E 119°49'1919.6
2014-Sep-23 21:33N 22°32' E 120°10'10 9.4
2014-Sep-23 20:32N 22°33' E 120°20'1 0.8
2014-Sep-23 19:33N 22°33' E 120°20'0 0.0
2014-Sep-23 18:24N 22°33' E 120°20'0 0.0
2014-Sep-23 17:33N 22°33' E 120°20'0 0.0
2014-Sep-23 15:12N 22°33' E 120°20'0 0.0
2014-Sep-23 14:24N 22°33' E 120°20'0 0.0
2014-Sep-23 13:30N 22°33' E 120°20'0 0.0
2014-Sep-23 12:30N 22°33' E 120°20'0 0.1
2014-Sep-23 11:30N 22°33' E 120°20'0 0.1
2014-Sep-23 10:30N 22°33' E 120°20'0 0.0
2014-Sep-23 09:30N 22°33' E 120°20'0 0.0
2014-Sep-23 08:12N 22°33' E 120°20'0 0.0
2014-Sep-23 07:30N 22°33' E 120°20'0 0.0
2014-Sep-23 06:30N 22°33' E 120°20'0 0.0
2014-Sep-23 05:30N 22°33' E 120°20'0 0.0
2014-Sep-23 04:30N 22°33' E 120°20'0 0.0
2014-Sep-23 03:30N 22°33' E 120°20'0 0.0
2014-Sep-23 02:24N 22°33' E 120°20'0 0.1
2014-Sep-23 01:34N 22°33' E 120°20'4 3.7
2014-Sep-23 00:33N 22°32' E 120°16'3 3.1
2014-Sep-22 23:33N 22°31' E 120°13'2 1.9
2014-Sep-22 22:30N 22°29' E 120°12'4 3.8
2014-Sep-22 21:33N 22°26' E 120°12'10 8.9
2014-Sep-22 20:27N 22°16' E 120°14'  
Track history (hours):
 
Tides and Currents Weather Stations Pressure Air Temp Water Temp Dewpoint Dewpoint Depression Visibility Wind Speed Wind Dir Waves Ship Positions

MSC Rania

Last reported at 2014-Oct-02 01:26 UTC. Time now 2014-Oct-02 04:34 UTC.
Position N 29°46' E 122°24'.

Length 332 m; draft 10 m.

Type: Ship (hazmat cat A). MMSI: 371752000.

Date/timePositionNaut miles runAvg speedWind from/ knotsBaromVisibWave heightAir tempDewpointWater temp
2014-Oct-02 01:26N 29°46' E 122°24'0 0.1
2014-Oct-01 23:20N 29°46' E 122°24'0 0.1
2014-Oct-01 22:32N 29°46' E 122°24'0 0.0
2014-Oct-01 15:25N 29°46' E 122°24'0 0.0
2014-Oct-01 14:31N 29°46' E 122°24'0 0.0
2014-Oct-01 10:13N 29°46' E 122°24'0 0.0
2014-Oct-01 02:19N 29°46' E 122°24'0 0.1
2014-Oct-01 01:33N 29°46' E 122°24'5 5.3
2014-Oct-01 00:33N 29°45' E 122°30'9 9.4
2014-Sep-30 23:34N 29°47' E 122°40'67 9.6
2014-Sep-30 16:33N 30°46' E 123°16'27 8.2
2014-Sep-30 13:12N 31°05' E 122°53'2111.5
2014-Sep-30 11:20N 31°06' E 122°28'911.3
2014-Sep-30 10:33N 31°07' E 122°18'2611.0
2014-Sep-30 08:13N 31°17' E 121°50'811.2
2014-Sep-30 07:32N 31°20' E 121°42'2 2.0
2014-Sep-30 06:29N 31°20' E 121°39'0 0.0
2014-Sep-30 05:29N 31°20' E 121°39'0 0.0
2014-Sep-30 01:29N 31°20' E 121°39'0 0.0
2014-Sep-29 23:29N 31°20' E 121°39'0 0.0
2014-Sep-29 22:29N 31°20' E 121°39'0 0.0
2014-Sep-29 20:29N 31°20' E 121°39'0 0.0
2014-Sep-29 19:17N 31°20' E 121°39'0 0.0
2014-Sep-29 18:05N 31°20' E 121°39'0 0.0
2014-Sep-29 17:23N 31°20' E 121°39'0 0.0
2014-Sep-29 16:23N 31°20' E 121°39'0 0.0
2014-Sep-29 15:29N 31°20' E 121°39'0 0.0
2014-Sep-29 11:29N 31°20' E 121°39'0 0.0
2014-Sep-29 10:11N 31°20' E 121°39'0 0.0
2014-Sep-29 07:17N 31°20' E 121°39'0 0.0
2014-Sep-29 06:29N 31°20' E 121°39'0 0.4
2014-Sep-29 05:33N 31°21' E 121°39'7 6.7
2014-Sep-29 04:33N 31°18' E 121°47'3611.9
2014-Sep-29 01:32N 31°07' E 122°27'9 9.2
2014-Sep-29 00:33N 31°07' E 122°37'1412.6
2014-Sep-28 23:26N 31°06' E 122°54'1412.6
2014-Sep-28 22:21N 31°02' E 123°09'1214.5
2014-Sep-28 21:33N 30°51' E 123°12'2014.4
2014-Sep-28 20:11N 30°32' E 123°19'914.7
2014-Sep-28 19:33N 30°23' E 123°18'1514.7
2014-Sep-28 18:33N 30°09' E 123°25'1514.5
2014-Sep-28 17:31N 29°56' E 123°33'1414.9
2014-Sep-28 16:33N 29°42' E 123°36'2015.2
2014-Sep-28 15:16N 29°23' E 123°42'1215.4
2014-Sep-28 14:31N 29°12' E 123°44'3115.8
2014-Sep-28 12:33N 28°45' E 123°26'1715.9
2014-Sep-28 11:29N 28°30' E 123°16'1515.9
2014-Sep-28 10:32N 28°17' E 123°07'30017.4
2014-Sep-27 17:17N 24°36' E 119°20'3617.0
2014-Sep-27 15:10N 24°20' E 118°45'1818.3
2014-Sep-27 14:10N 24°16' E 118°25'813.4
2014-Sep-27 13:33N 24°17' E 118°16'1313.5
2014-Sep-27 12:33N 24°25' E 118°04'3 2.2
2014-Sep-27 11:22N 24°26' E 118°02'0 0.0
2014-Sep-27 10:04N 24°26' E 118°02'0 0.1
2014-Sep-27 09:28N 24°26' E 118°02'0 0.0
2014-Sep-27 08:11N 24°26' E 118°02'0 0.0
2014-Sep-27 07:16N 24°26' E 118°02'0 0.1
2014-Sep-27 06:25N 24°26' E 118°02'0 0.1
2014-Sep-27 05:28N 24°26' E 118°02'0 0.0
2014-Sep-27 04:29N 24°26' E 118°02'0 0.0
2014-Sep-27 03:28N 24°26' E 118°02'0 0.0
2014-Sep-27 02:28N 24°26' E 118°02'0 0.0
2014-Sep-27 01:10N 24°26' E 118°02'0 0.0
2014-Sep-27 00:22N 24°26' E 118°02'0 0.4
2014-Sep-26 23:32N 24°26' E 118°02'1110.7
2014-Sep-26 22:33N 24°19' E 118°11'1413.5
2014-Sep-26 21:32N 24°08' E 118°20'1515.2
2014-Sep-26 20:33N 23°54' E 118°14'1818.2
2014-Sep-26 19:33N 23°41' E 118°00'2217.3
2014-Sep-26 18:17N 23°25' E 117°44'210 5.0
2014-Sep-25 00:25N 22°20' E 114°07'31612.2
2014-Sep-23 22:33N 22°30' E 119°49'1919.6
2014-Sep-23 21:33N 22°32' E 120°10'10 9.4
2014-Sep-23 20:32N 22°33' E 120°20'1 0.8
2014-Sep-23 19:33N 22°33' E 120°20'0 0.0
2014-Sep-23 18:24N 22°33' E 120°20'0 0.0
2014-Sep-23 17:33N 22°33' E 120°20'0 0.0
2014-Sep-23 15:12N 22°33' E 120°20'0 0.0
2014-Sep-23 14:24N 22°33' E 120°20'0 0.0
2014-Sep-23 13:30N 22°33' E 120°20'0 0.0
2014-Sep-23 12:30N 22°33' E 120°20'0 0.1
2014-Sep-23 11:30N 22°33' E 120°20'0 0.1
2014-Sep-23 10:30N 22°33' E 120°20'0 0.0
2014-Sep-23 09:30N 22°33' E 120°20'0 0.0
2014-Sep-23 08:12N 22°33' E 120°20'0 0.0
2014-Sep-23 07:30N 22°33' E 120°20'0 0.0
2014-Sep-23 06:30N 22°33' E 120°20'0 0.0
2014-Sep-23 05:30N 22°33' E 120°20'0 0.0
2014-Sep-23 04:30N 22°33' E 120°20'0 0.0
2014-Sep-23 03:30N 22°33' E 120°20'0 0.0
2014-Sep-23 02:24N 22°33' E 120°20'0 0.1
2014-Sep-23 01:34N 22°33' E 120°20'4 3.7
2014-Sep-23 00:33N 22°32' E 120°16'3 3.1
2014-Sep-22 23:33N 22°31' E 120°13'2 1.9
2014-Sep-22 22:30N 22°29' E 120°12'4 3.8
2014-Sep-22 21:33N 22°26' E 120°12'10 8.9
2014-Sep-22 20:27N 22°16' E 120°14'  

Dump ship's entire track history